Time;durP1;ratioP1;P1;durP2;ratioP2;P2;SDS_P1;SDS_P2;PMS_P1;PMS_P2;Temp;Humidity;BMP_temperature;BMP_pressure;BME280_temperature;BME280_humidity;BME280_pressure;Samples;Min_cycle;Max_cycle;Signal;HPM_P1;HPM_P2
2023/05/29 00:00:59;;;;;;;;;;;;;;;12.38;87.63;102252.81;10479121;28;20305;-69
2023/05/29 00:06:02;;;;;;;;;;;;;;;11.92;87.67;102262.56;10496502;28;20004;-69
2023/05/29 00:11:04;;;;;;;;;;;;;;;12.26;86.20;102272.56;10495530;28;19925;-70
2023/05/29 00:16:07;;;;;;;;;;;;;;;11.88;89.61;102281.94;10498115;28;19925;-69
2023/05/29 00:21:09;;;;;;;;;;;;;;;12.12;86.84;102276.66;10503853;28;19935;-70
2023/05/29 00:26:12;;;;;;;;;;;;;;;12.35;84.94;102281.81;10520179;28;19924;-69
2023/05/29 00:31:14;;;;;;;;;;;;;;;11.78;86.13;102285.84;10502726;28;20290;-69
2023/05/29 00:36:17;;;;;;;;;;;;;;;11.77;88.22;102307.72;10504338;28;19972;-69
2023/05/29 00:41:19;;;;;;;;;;;;;;;11.46;89.85;102295.78;10490953;28;19935;-69
2023/05/29 00:46:21;;;;;;;;;;;;;;;11.49;90.44;102299.13;10518858;28;19925;-69
2023/05/29 00:51:23;;;;;;;;;;;;;;;11.40;92.67;102298.63;10501488;28;19925;-69
2023/05/29 00:56:26;;;;;;;;;;;;;;;11.29;90.90;102309.53;10485912;28;19930;-69
2023/05/29 01:01:31;;;;;;;;;;;;;;;11.34;94.07;102299.72;10489290;28;19932;-69
2023/05/29 01:06:33;;;;;;;;;;;;;;;11.62;90.30;102309.19;10473162;28;20375;-69
2023/05/29 01:11:56;;;;;;;;;;;;;;;11.60;88.96;102303.13;10502200;28;20250;-69
2023/05/29 01:16:59;;;;;;;;;;;;;;;11.58;91.13;102313.69;10485292;28;20456;-69
2023/05/29 01:27:16;;;;;;;;;;;;;;;11.44;91.01;102315.97;10456092;28;19967;-69
2023/05/29 01:32:18;;;;;;;;;;;;;;;11.14;91.41;102324.03;10442703;28;20006;-69
2023/05/29 01:37:21;;;;;;;;;;;;;;;11.26;92.27;102325.34;10426481;28;19939;-69
2023/05/29 01:42:23;;;;;;;;;;;;;;;11.43;90.72;102319.50;10459691;28;19924;-69
2023/05/29 01:47:26;;;;;;;;;;;;;;;11.21;92.28;102333.38;10441552;28;19925;-69
2023/05/29 01:52:28;;;;;;;;;;;;;;;11.17;93.09;102323.91;10460151;28;19978;-69
2023/05/29 01:57:30;;;;;;;;;;;;;;;11.05;92.20;102329.59;10449641;28;19925;-69
2023/05/29 02:02:35;;;;;;;;;;;;;;;11.11;93.54;102324.13;10437491;28;19936;-69
2023/05/29 02:07:38;;;;;;;;;;;;;;;11.04;nan;102315.63;10459334;28;19960;-69
2023/05/29 02:12:40;;;;;;;;;;;;;;;11.06;93.64;102311.22;10458336;28;19970;-69
2023/05/29 02:17:42;;;;;;;;;;;;;;;11.00;93.69;102327.13;10457587;28;20402;-69
2023/05/29 02:22:45;;;;;;;;;;;;;;;10.94;94.98;102319.47;10458396;28;19968;-68
2023/05/29 02:27:47;;;;;;;;;;;;;;;10.83;95.07;102325.09;10457984;28;19931;-69
2023/05/29 02:32:50;;;;;;;;;;;;;;;10.55;97.51;102327.78;10456915;28;20299;-69
2023/05/29 02:37:52;;;;;;;;;;;;;;;10.69;96.91;102340.41;10457638;28;20012;-69
2023/05/29 02:42:55;;;;;;;;;;;;;;;10.36;97.71;102346.69;10457167;28;20376;-69
2023/05/29 02:47:57;;;;;;;;;;;;;;;10.51;99.01;102339.28;10448801;28;20287;-69
2023/05/29 02:52:59;;;;;;;;;;;;;;;10.56;95.67;102332.13;10456067;28;20392;-69
2023/05/29 02:58:01;;;;;;;;;;;;;;;10.67;95.54;102326.53;10456680;28;20334;-69
2023/05/29 03:03:04;;;;;;;;;;;;;;;10.76;94.33;102334.94;10456210;28;19931;-69
2023/05/29 03:08:06;;;;;;;;;;;;;;;10.63;95.02;102330.16;10438405;28;19952;-69
2023/05/29 03:13:09;;;;;;;;;;;;;;;10.24;97.16;102331.38;10457070;28;19924;-69
2023/05/29 03:18:12;;;;;;;;;;;;;;;10.54;97.72;102334.78;10457017;28;19925;-69
2023/05/29 03:23:14;;;;;;;;;;;;;;;10.62;95.05;102341.53;10454387;28;20410;-68
2023/05/29 03:28:16;;;;;;;;;;;;;;;10.36;95.93;102346.69;10456876;28;19933;-69
2023/05/29 03:33:18;;;;;;;;;;;;;;;10.43;97.40;102352.59;10456821;28;19932;-69
2023/05/29 03:38:21;;;;;;;;;;;;;;;10.31;98.30;102351.19;10455760;28;19936;-69
2023/05/29 03:43:23;;;;;;;;;;;;;;;9.90;100.00;102357.69;10455636;28;19929;-69
2023/05/29 03:48:25;;;;;;;;;;;;;;;9.64;100.00;102359.31;10456379;28;19925;-69
2023/05/29 03:53:27;;;;;;;;;;;;;;;10.15;99.38;102355.19;10462006;28;19924;-69
2023/05/29 03:58:29;;;;;;;;;;;;;;;9.98;99.67;102363.56;10463701;28;19932;-69
2023/05/29 04:03:32;;;;;;;;;;;;;;;10.27;98.69;102361.81;10463488;28;19948;-69
2023/05/29 04:08:34;;;;;;;;;;;;;;;10.21;100.00;102370.72;10445661;28;20486;-69
2023/05/29 04:13:36;;;;;;;;;;;;;;;10.42;96.46;102369.22;10463180;28;19924;-69
2023/05/29 04:18:39;;;;;;;;;;;;;;;10.68;94.82;102370.16;10463214;28;19931;-69
2023/05/29 04:23:41;;;;;;;;;;;;;;;10.21;98.02;102378.56;10458369;28;19925;-69
2023/05/29 04:28:43;;;;;;;;;;;;;;;10.32;97.26;102373.91;10421580;28;19929;-69
2023/05/29 04:33:45;;;;;;;;;;;;;;;10.01;100.00;102381.78;10420683;28;20025;-68
2023/05/29 04:38:50;;;;;;;;;;;;;;;10.33;98.92;102374.75;10403468;28;19925;-69
2023/05/29 04:43:53;;;;;;;;;;;;;;;10.56;96.01;102374.88;10421331;28;19929;-69
2023/05/29 04:48:56;;;;;;;;;;;;;;;9.94;96.02;102370.66;10420591;28;19933;-69
2023/05/29 04:53:58;;;;;;;;;;;;;;;10.59;95.65;102369.53;10419735;28;20340;-69
2023/05/29 04:59:00;;;;;;;;;;;;;;;10.56;96.19;102377.50;10420420;28;20423;-69
2023/05/29 05:04:03;;;;;;;;;;;;;;;10.68;95.23;102391.97;10419890;28;19929;-69
2023/05/29 05:09:05;;;;;;;;;;;;;;;10.74;nan;102406.59;10392966;28;19932;-69
2023/05/29 05:14:07;;;;;;;;;;;;;;;10.52;93.52;102415.19;10420332;28;20012;-69
2023/05/29 05:19:09;;;;;;;;;;;;;;;11.02;91.59;102406.56;10420408;28;19932;-68
2023/05/29 05:24:14;;;;;;;;;;;;;;;10.76;91.38;102413.53;10424958;28;20004;-68
2023/05/29 05:29:16;;;;;;;;;;;;;;;11.06;90.89;102402.06;10460049;28;19924;-68
2023/05/29 05:34:19;;;;;;;;;;;;;;;10.97;89.87;102409.31;10460181;28;19933;-69
2023/05/29 05:39:21;;;;;;;;;;;;;;;10.65;91.04;102407.75;10460640;28;19925;-68
2023/05/29 05:44:23;;;;;;;;;;;;;;;10.78;90.17;102419.56;10459251;28;19935;-69
2023/05/29 05:49:25;;;;;;;;;;;;;;;11.26;88.03;102412.75;10459180;28;20295;-68
2023/05/29 05:54:27;;;;;;;;;;;;;;;11.52;86.96;102406.56;10459257;28;20306;-68
2023/05/29 05:59:30;;;;;;;;;;;;;;;11.19;85.41;102411.22;10459232;28;20368;-69
2023/05/29 06:04:32;;;;;;;;;;;;;;;11.21;86.83;102406.78;10457656;28;20264;-69
2023/05/29 06:09:34;;;;;;;;;;;;;;;11.67;85.39;102409.56;10458571;28;19925;-69
2023/05/29 06:14:36;;;;;;;;;;;;;;;11.88;85.02;102421.91;10458464;28;19925;-69
2023/05/29 06:19:38;;;;;;;;;;;;;;;11.77;84.59;102416.19;10456464;28;20375;-70
2023/05/29 06:24:41;;;;;;;;;;;;;;;11.70;84.00;102431.31;10431987;28;19932;-70
2023/05/29 06:29:43;;;;;;;;;;;;;;;12.02;81.73;102426.66;10415671;28;20380;-70
2023/05/29 06:34:45;;;;;;;;;;;;;;;12.15;82.61;102432.28;10417415;28;19929;-70
2023/05/29 06:39:47;;;;;;;;;;;;;;;11.69;81.75;102434.81;10398083;28;19925;-70
2023/05/29 06:44:50;;;;;;;;;;;;;;;12.15;80.47;102434.06;10416491;28;20380;-69
2023/05/29 06:49:52;;;;;;;;;;;;;;;11.96;80.15;102439.16;10416127;28;19925;-70
2023/05/29 06:54:56;;;;;;;;;;;;;;;12.45;79.65;102439.91;10397637;28;19925;-69
2023/05/29 06:59:58;;;;;;;;;;;;;;;12.31;78.71;102439.63;10415838;28;20295;-70
2023/05/29 07:05:01;;;;;;;;;;;;;;;12.46;78.19;102444.25;10415611;28;19925;-70
2023/05/29 07:10:03;;;;;;;;;;;;;;;13.07;76.89;102440.06;10415419;28;19935;-67
2023/05/29 07:15:06;;;;;;;;;;;;;;;13.13;76.09;102437.16;10414912;28;20327;-69
2023/05/29 07:20:08;;;;;;;;;;;;;;;13.88;73.95;102433.06;10415978;28;19925;-69
2023/05/29 07:25:10;;;;;;;;;;;;;;;14.07;72.46;102444.50;10412977;28;20395;-69
2023/05/29 07:30:13;;;;;;;;;;;;;;;14.62;70.10;102450.75;10437810;28;20271;-69
2023/05/29 07:35:15;;;;;;;;;;;;;;;14.06;69.85;102448.03;10456087;28;19925;-69
2023/05/29 07:40:17;;;;;;;;;;;;;;;14.04;69.20;102449.91;10455965;28;19925;-69
2023/05/29 07:45:20;;;;;;;;;;;;;;;15.14;67.57;102453.44;10456647;28;19931;-69
2023/05/29 07:50:22;;;;;;;;;;;;;;;14.74;67.29;102447.50;10454147;28;19925;-69
2023/05/29 07:55:24;;;;;;;;;;;;;;;16.08;65.59;102451.22;10437900;28;19924;-69
2023/05/29 08:00:28;;;;;;;;;;;;;;;16.42;63.20;102454.63;10456376;28;19925;-69
2023/05/29 08:05:31;;;;;;;;;;;;;;;16.38;62.78;102458.41;10441725;28;19924;-69
2023/05/29 08:10:33;;;;;;;;;;;;;;;15.97;61.38;102461.53;10437669;28;19929;-69
2023/05/29 08:15:36;;;;;;;;;;;;;;;16.42;62.79;102451.16;10455964;28;19925;-70
2023/05/29 08:20:38;;;;;;;;;;;;;;;15.75;61.99;102461.75;10455290;28;20307;-70
2023/05/29 08:25:40;;;;;;;;;;;;;;;15.63;62.87;102470.34;10453921;28;20375;-70
2023/05/29 08:30:43;;;;;;;;;;;;;;;16.93;61.02;102467.69;10453163;28;19925;-70
2023/05/29 08:35:45;;;;;;;;;;;;;;;17.60;60.44;102467.25;10455773;28;19924;-70
2023/05/29 08:40:48;;;;;;;;;;;;;;;17.01;59.63;102467.22;10463014;28;19924;-70
2023/05/29 08:45:52;;;;;;;;;;;;;;;18.05;60.60;102460.09;10460959;28;19936;-70
2023/05/29 08:50:55;;;;;;;;;;;;;;;16.98;60.28;102476.19;10457861;28;19925;-70
2023/05/29 08:55:58;;;;;;;;;;;;;;;17.83;59.10;102473.78;10444310;28;19932;-70
2023/05/29 09:01:00;;;;;;;;;;;;;;;19.09;56.63;102467.56;10462308;28;19925;-70
2023/05/29 09:06:03;;;;;;;;;;;;;;;18.51;58.12;102480.19;10443164;28;20387;-70
2023/05/29 09:11:05;;;;;;;;;;;;;;;18.70;57.77;102472.72;10444386;28;19979;-70
2023/05/29 09:16:08;;;;;;;;;;;;;;;17.26;58.97;102469.28;10461667;28;19925;-70
2023/05/29 09:21:10;;;;;;;;;;;;;;;18.72;55.56;102462.84;10442972;28;19925;-70
2023/05/29 09:26:13;;;;;;;;;;;;;;;19.67;53.66;102458.25;10460402;28;20352;-72
2023/05/29 09:31:21;;;;;;;;;;;;;;;18.08;53.75;102464.34;10442026;28;19925;-72
2023/05/29 09:36:23;;;;;;;;;;;;;;;18.91;55.88;102462.53;10460323;28;20353;-72
2023/05/29 09:41:26;;;;;;;;;;;;;;;18.32;53.15;102457.47;10459897;28;19960;-72
2023/05/29 09:46:28;;;;;;;;;;;;;;;19.59;54.69;102457.09;10460406;28;19932;-72
2023/05/29 09:51:30;;;;;;;;;;;;;;;19.55;53.15;102464.44;10442548;28;19925;-72
2023/05/29 09:56:32;;;;;;;;;;;;;;;19.84;53.06;102462.41;10438063;28;19926;-72
2023/05/29 10:01:35;;;;;;;;;;;;;;;20.08;51.91;102451.00;10459331;28;19924;-72
2023/05/29 10:06:38;;;;;;;;;;;;;;;19.70;52.62;102448.38;10459591;28;19991;-72
2023/05/29 10:11:42;;;;;;;;;;;;;;;19.87;51.59;102448.06;10430972;28;19931;-72
2023/05/29 10:16:44;;;;;;;;;;;;;;;20.35;51.50;102440.16;10454634;28;19929;-72
2023/05/29 10:21:47;;;;;;;;;;;;;;;19.67;52.33;102444.13;10441419;28;19956;-72
2023/05/29 10:26:53;;;;;;;;;;;;;;;21.41;50.00;102441.19;10440625;28;20036;-72
2023/05/29 10:31:58;;;;;;;;;;;;;;;20.01;51.62;102453.25;10439703;28;20359;-72
2023/05/29 10:37:08;;;;;;;;;;;;;;;19.58;54.20;102444.75;10457551;28;19940;-72
2023/05/29 10:42:29;;;;;;;;;;;;;;;20.23;52.23;102438.41;10440390;28;19925;-73
2023/05/29 10:47:31;;;;;;;;;;;;;;;21.19;51.68;102442.84;10457897;28;20016;-68
2023/05/29 10:52:34;;;;;;;;;;;;;;;20.77;50.48;102445.13;10456003;28;19968;-67
2023/05/29 10:57:37;;;;;;;;;;;;;;;19.70;51.10;102437.75;10458350;28;20020;-67
2023/05/29 11:02:40;;;;;;;;;;;;;;;21.31;51.92;102443.69;10449118;28;19924;-67
2023/05/29 11:07:54;;;;;;;;;;;;;;;20.49;51.72;102433.81;10457124;28;19925;-67
2023/05/29 11:12:58;;;;;;;;;;;;;;;20.22;50.22;102445.56;10457845;28;19952;-68
2023/05/29 11:18:09;;;;;;;;;;;;;;;20.92;49.90;102440.47;10457131;28;19925;-67
2023/05/29 11:23:17;;;;;;;;;;;;;;;21.30;51.90;102424.22;10439871;28;19925;-67
2023/05/29 11:28:19;;;;;;;;;;;;;;;19.59;50.11;102426.06;10398234;28;20380;-67
2023/05/29 11:33:25;;;;;;;;;;;;;;;21.09;48.36;102418.72;10416004;28;19933;-67
2023/05/29 11:38:27;;;;;;;;;;;;;;;22.01;49.53;102421.34;10415867;28;19925;-67
2023/05/29 11:43:30;;;;;;;;;;;;;;;20.59;48.94;102423.34;10397662;28;20368;-67
2023/05/29 11:48:33;;;;;;;;;;;;;;;21.09;50.09;102415.22;10397588;28;20356;-67
2023/05/29 11:53:35;;;;;;;;;;;;;;;21.25;47.00;102409.53;10415016;28;20399;-67
2023/05/29 11:58:38;;;;;;;;;;;;;;;19.45;48.96;102416.41;10415757;28;20012;-67
2023/05/29 12:03:41;;;;;;;;;;;;;;;21.28;48.83;102406.66;10414795;28;20399;-67
2023/05/29 12:08:43;;;;;;;;;;;;;;;21.31;47.26;102403.75;10397109;28;20376;-67
2023/05/29 12:13:54;;;;;;;;;;;;;;;19.11;48.77;102407.25;10419574;28;20383;-67
2023/05/29 12:18:57;;;;;;;;;;;;;;;20.74;45.78;102400.94;10404879;28;19926;-67
2023/05/29 12:23:59;;;;;;;;;;;;;;;20.46;47.08;102409.25;10425328;28;19932;-67
2023/05/29 12:29:05;;;;;;;;;;;;;;;21.61;46.73;102408.50;10446615;28;19929;-67
2023/05/29 12:34:08;;;;;;;;;;;;;;;20.88;46.12;102401.72;10463755;28;19925;-67
2023/05/29 12:39:10;;;;;;;;;;;;;;;20.32;46.13;102413.78;10462946;28;20295;-67
2023/05/29 12:44:12;;;;;;;;;;;;;;;18.90;46.04;102404.25;10444869;28;19925;-68
2023/05/29 12:49:15;;;;;;;;;;;;;;;21.21;45.92;102414.25;10443690;28;20256;-68
2023/05/29 12:54:17;;;;;;;;;;;;;;;21.65;44.72;102410.00;10444220;28;20383;-68
2023/05/29 12:59:19;;;;;;;;;;;;;;;21.63;45.93;102413.72;10462836;28;19925;-68
2023/05/29 13:04:23;;;;;;;;;;;;;;;21.39;45.40;102400.50;10462509;28;19936;-68
2023/05/29 13:09:25;;;;;;;;;;;;;;;21.78;43.52;102395.66;10461706;28;20280;-68
2023/05/29 13:14:27;;;;;;;;;;;;;;;21.51;42.96;102392.41;10461345;28;19925;-68
2023/05/29 13:19:29;;;;;;;;;;;;;;;21.13;44.24;102396.22;10460443;28;20284;-68
2023/05/29 13:24:31;;;;;;;;;;;;;;;21.68;42.68;102391.06;10455329;28;19928;-68
2023/05/29 13:29:34;;;;;;;;;;;;;;;21.74;43.76;102386.22;10450977;28;19944;-68
2023/05/29 13:34:36;;;;;;;;;;;;;;;21.67;41.37;102396.50;10457703;28;19925;-68
2023/05/29 13:39:38;;;;;;;;;;;;;;;20.33;44.28;102396.03;10445630;22;19925;-68
2023/05/29 13:44:41;;;;;;;;;;;;;;;22.59;42.96;102397.06;10399145;28;20016;-68
2023/05/29 13:49:43;;;;;;;;;;;;;;;21.00;38.56;102384.81;10397366;28;19925;-68
2023/05/29 13:54:45;;;;;;;;;;;;;;;21.83;41.40;102383.66;10405178;28;19935;-68
2023/05/29 13:59:47;;;;;;;;;;;;;;;22.20;41.59;102388.66;10407615;28;20299;-68
2023/05/29 14:04:50;;;;;;;;;;;;;;;21.49;42.07;102385.50;10401538;28;19929;-68
2023/05/29 14:09:52;;;;;;;;;;;;;;;22.47;43.28;102382.06;10396265;28;19926;-68
2023/05/29 14:14:54;;;;;;;;;;;;;;;21.37;43.41;102386.41;10410528;28;20364;-68
2023/05/29 14:19:57;;;;;;;;;;;;;;;21.60;41.81;102381.97;10399275;28;19975;-68
2023/05/29 14:25:00;;;;;;;;;;;;;;;22.82;43.17;102378.25;10413438;28;19925;-68
2023/05/29 14:30:03;;;;;;;;;;;;;;;22.18;41.54;102377.28;10414771;28;19925;-68
2023/05/29 14:35:05;;;;;;;;;;;;;;;23.24;41.49;102369.41;10413379;28;20016;-68
2023/05/29 14:40:09;;;;;;;;;;;;;;;24.38;39.06;102368.16;10414656;28;20426;-68
2023/05/29 14:45:11;;;;;;;;;;;;;;;22.92;40.18;102367.63;10413756;28;20287;-68
2023/05/29 14:50:15;;;;;;;;;;;;;;;22.47;41.98;102362.53;10413067;28;19925;-68
2023/05/29 14:55:17;;;;;;;;;;;;;;;22.64;39.00;102364.63;10410518;28;19931;-68
2023/05/29 15:00:19;;;;;;;;;;;;;;;23.43;41.25;102366.78;10391315;28;19925;-68
2023/05/29 15:05:22;;;;;;;;;;;;;;;22.44;39.13;102355.63;10431451;28;19925;-68
2023/05/29 15:10:24;;;;;;;;;;;;;;;22.70;39.69;102366.78;10413753;28;19947;-68
2023/05/29 15:15:27;;;;;;;;;;;;;;;22.62;39.57;102370.09;10415352;28;19925;-68
2023/05/29 15:20:38;;;;;;;;;;;;;;;21.76;41.44;102373.63;10396939;28;19925;-68
2023/05/29 15:25:40;;;;;;;;;;;;;;;22.23;40.16;102364.41;10413648;28;19932;-68
2023/05/29 15:30:42;;;;;;;;;;;;;;;22.76;40.05;102366.28;10410286;28;19940;-65
2023/05/29 15:35:46;;;;;;;;;;;;;;;23.39;39.60;102367.22;10413555;28;20474;-69
2023/05/29 15:40:48;;;;;;;;;;;;;;;21.57;39.37;102356.44;10410536;28;19972;-69
2023/05/29 15:45:51;;;;;;;;;;;;;;;23.39;37.99;102361.88;10397412;28;19933;-69
2023/05/29 15:50:53;;;;;;;;;;;;;;;22.15;37.37;102358.84;10420746;28;19968;-69
2023/05/29 15:55:55;;;;;;;;;;;;;;;22.12;38.49;102364.44;10420643;28;19932;-69
2023/05/29 16:00:58;;;;;;;;;;;;;;;22.43;39.15;102361.97;10420137;28;19952;-69
2023/05/29 16:06:00;;;;;;;;;;;;;;;23.44;39.07;102363.16;10422397;28;19932;-69
2023/05/29 16:11:03;;;;;;;;;;;;;;;23.21;38.02;102366.97;10419538;28;19925;-69
2023/05/29 16:16:05;;;;;;;;;;;;;;;21.38;39.12;102372.97;10404232;28;20019;-69
2023/05/29 16:21:08;;;;;;;;;;;;;;;22.95;38.64;102365.56;10419612;28;20023;-69
2023/05/29 16:26:10;;;;;;;;;;;;;;;21.95;38.65;102359.66;10417178;28;20391;-69
2023/05/29 16:31:13;;;;;;;;;;;;;;;21.80;41.92;102364.41;10420605;28;20261;-69
2023/05/29 16:36:15;;;;;;;;;;;;;;;21.68;40.87;102359.06;10404978;28;19983;-69
2023/05/29 16:41:17;;;;;;;;;;;;;;;21.77;40.58;102359.31;10419578;28;20332;-69
2023/05/29 16:46:20;;;;;;;;;;;;;;;21.25;41.58;102353.59;10401627;28;20379;-68
2023/05/29 16:51:22;;;;;;;;;;;;;;;21.00;43.99;102355.53;10420612;28;19932;-68
2023/05/29 16:56:25;;;;;;;;;;;;;;;21.37;42.10;102359.78;10421231;28;19932;-69
2023/05/29 17:01:27;;;;;;;;;;;;;;;19.94;43.68;102361.63;10402553;28;19925;-69
2023/05/29 17:06:30;;;;;;;;;;;;;;;20.85;45.08;102364.72;10402583;28;19925;-68
2023/05/29 17:11:32;;;;;;;;;;;;;;;20.64;43.08;102361.84;10418694;28;19925;-69
2023/05/29 17:16:34;;;;;;;;;;;;;;;20.12;44.10;102374.53;10420944;28;19951;-68
2023/05/29 17:21:36;;;;;;;;;;;;;;;19.47;44.52;102376.47;10402508;28;19925;-68
2023/05/29 17:26:39;;;;;;;;;;;;;;;20.08;44.78;102368.56;10420574;28;19932;-68
2023/05/29 17:31:41;;;;;;;;;;;;;;;19.75;44.89;102382.50;10417848;28;19925;-68
2023/05/29 17:36:43;;;;;;;;;;;;;;;19.25;46.08;102377.13;10400912;28;19933;-68
2023/05/29 17:41:46;;;;;;;;;;;;;;;19.09;42.57;102385.28;10418786;28;20016;-68
2023/05/29 17:46:50;;;;;;;;;;;;;;;19.33;45.29;102397.81;10418358;28;19925;-68
2023/05/29 17:51:52;;;;;;;;;;;;;;;19.09;45.19;102393.22;10417759;28;20399;-68
2023/05/29 17:56:54;;;;;;;;;;;;;;;18.77;44.22;102380.31;10419377;28;20015;-68
2023/05/29 18:01:57;;;;;;;;;;;;;;;19.02;43.99;102386.66;10416677;28;19925;-68
2023/05/29 18:07:00;;;;;;;;;;;;;;;18.51;43.50;102384.72;10413770;28;19979;-68
2023/05/29 18:12:03;;;;;;;;;;;;;;;18.34;45.05;102391.97;10418028;28;19975;-68
2023/05/29 18:17:06;;;;;;;;;;;;;;;17.79;45.42;102384.88;10417219;28;20455;-68
2023/05/29 18:22:08;;;;;;;;;;;;;;;17.90;46.98;102392.16;10399243;28;20376;-68
2023/05/29 18:27:10;;;;;;;;;;;;;;;18.10;47.84;102394.38;10399118;28;20288;-68
2023/05/29 18:32:13;;;;;;;;;;;;;;;17.21;47.60;102398.06;10399877;28;19925;-67
2023/05/29 18:37:15;;;;;;;;;;;;;;;17.66;47.91;102405.13;10414831;28;20431;-66
2023/05/29 18:42:17;;;;;;;;;;;;;;;17.22;47.96;102409.53;10416457;28;19972;-67
2023/05/29 18:47:20;;;;;;;;;;;;;;;17.38;48.24;102414.75;10415049;28;19931;-68
2023/05/29 18:52:22;;;;;;;;;;;;;;;17.22;47.56;102414.84;10416336;28;19925;-67
2023/05/29 18:57:24;;;;;;;;;;;;;;;16.77;49.10;102408.63;10415285;28;19933;-67
2023/05/29 19:02:27;;;;;;;;;;;;;;;16.81;49.23;102411.00;10416961;28;19925;-67
2023/05/29 19:07:29;;;;;;;;;;;;;;;16.15;49.70;102415.63;10415335;28;19979;-67
2023/05/29 19:12:31;;;;;;;;;;;;;;;16.57;50.36;102426.47;10415674;28;19925;-67
2023/05/29 19:17:35;;;;;;;;;;;;;;;16.11;51.02;102429.91;10414836;28;19925;-67
2023/05/29 19:22:37;;;;;;;;;;;;;;;15.60;51.53;102437.00;10415676;28;19932;-67
2023/05/29 19:27:39;;;;;;;;;;;;;;;15.80;52.04;102438.63;10414445;28;20380;-67
2023/05/29 19:32:41;;;;;;;;;;;;;;;15.71;53.04;102439.09;10416075;28;20012;-67
2023/05/29 19:37:44;;;;;;;;;;;;;;;15.36;52.00;102450.56;10414427;28;19976;-67
2023/05/29 19:42:46;;;;;;;;;;;;;;;15.54;51.99;102453.19;10397692;28;20380;-67
2023/05/29 19:47:48;;;;;;;;;;;;;;;15.10;52.09;102454.53;10413740;28;19952;-67
2023/05/29 19:52:53;;;;;;;;;;;;;;;14.95;53.31;102465.84;10403995;28;20302;-67
2023/05/29 19:57:55;;;;;;;;;;;;;;;14.99;52.64;102472.69;10396276;28;20314;-67
2023/05/29 20:02:57;;;;;;;;;;;;;;;14.75;53.19;102480.00;10415531;28;19925;-67
2023/05/29 20:08:00;;;;;;;;;;;;;;;14.71;53.62;102479.31;10395767;28;20435;-67
2023/05/29 20:13:02;;;;;;;;;;;;;;;14.70;53.74;102485.50;10415317;28;19964;-67
2023/05/29 20:18:05;;;;;;;;;;;;;;;14.62;54.18;102490.28;10413504;28;20310;-67
2023/05/29 20:23:07;;;;;;;;;;;;;;;14.75;53.79;102487.91;10413258;28;19925;-67
2023/05/29 20:28:10;;;;;;;;;;;;;;;14.10;55.76;102491.75;10414934;28;19926;-67
2023/05/29 20:33:12;;;;;;;;;;;;;;;13.93;55.16;102495.13;10396168;28;19925;-67
2023/05/29 20:38:14;;;;;;;;;;;;;;;14.26;55.11;102505.06;10413951;28;19925;-67
2023/05/29 20:43:20;;;;;;;;;;;;;;;14.09;56.08;102505.84;10404718;28;19972;-67
2023/05/29 20:48:23;;;;;;;;;;;;;;;13.52;57.67;102518.84;10404327;28;20269;-66
2023/05/29 20:53:25;;;;;;;;;;;;;;;13.66;57.78;102526.16;10417945;28;20040;-67
2023/05/29 20:58:28;;;;;;;;;;;;;;;13.64;57.71;102517.47;10415059;28;19980;-67
2023/05/29 21:03:30;;;;;;;;;;;;;;;13.53;59.31;102523.22;10419922;28;20265;-67
2023/05/29 21:08:36;;;;;;;;;;;;;;;13.79;58.42;102510.69;10420645;28;19925;-66
2023/05/29 21:13:39;;;;;;;;;;;;;;;13.46;59.82;102520.88;10403407;28;19932;-67
2023/05/29 21:18:41;;;;;;;;;;;;;;;13.27;60.91;102526.03;10419831;28;19925;-66
2023/05/29 21:23:44;;;;;;;;;;;;;;;12.37;62.05;102526.91;10419893;28;20376;-66
2023/05/29 21:28:46;;;;;;;;;;;;;;;13.05;60.96;102523.44;10401420;28;20379;-66
2023/05/29 21:33:49;;;;;;;;;;;;;;;12.62;62.69;102532.09;10419264;28;20284;-66
2023/05/29 21:38:54;;;;;;;;;;;;;;;12.68;62.66;102531.00;10418700;28;19925;-66
2023/05/29 21:43:56;;;;;;;;;;;;;;;12.44;63.33;102527.53;10419507;28;19935;-66
2023/05/29 21:48:59;;;;;;;;;;;;;;;12.36;65.34;102524.34;10419705;28;19929;-67
2023/05/29 21:54:01;;;;;;;;;;;;;;;12.53;64.01;102526.31;10418283;28;19931;-66
2023/05/29 21:59:03;;;;;;;;;;;;;;;12.34;65.19;102531.41;10417615;28;20460;-67
2023/05/29 22:04:06;;;;;;;;;;;;;;;12.17;66.31;102538.16;10418539;28;19925;-67
2023/05/29 22:09:08;;;;;;;;;;;;;;;12.14;66.74;102535.63;10401386;28;19932;-67
2023/05/29 22:14:11;;;;;;;;;;;;;;;12.13;67.20;102541.78;10417280;28;19925;-67
2023/05/29 22:19:13;;;;;;;;;;;;;;;11.73;68.71;102553.63;10418515;28;19925;-67
2023/05/29 22:24:16;;;;;;;;;;;;;;;12.17;69.42;102556.53;10417155;28;20143;-67
2023/05/29 22:29:18;;;;;;;;;;;;;;;12.10;69.48;102569.91;10418047;28;19931;-67
2023/05/29 22:34:23;;;;;;;;;;;;;;;12.01;69.79;102560.59;10416257;28;20368;-67
2023/05/29 22:39:26;;;;;;;;;;;;;;;11.65;71.21;102569.66;10417000;28;19925;-67
2023/05/29 22:44:28;;;;;;;;;;;;;;;11.78;72.35;102564.84;10416614;28;19932;-67
2023/05/29 22:49:30;;;;;;;;;;;;;;;12.01;72.04;102565.84;10417199;28;19932;-67
2023/05/29 22:54:33;;;;;;;;;;;;;;;12.26;71.16;102565.84;10415162;28;19931;-67
2023/05/29 22:59:35;;;;;;;;;;;;;;;11.47;74.03;102565.88;10417033;28;19925;-67
2023/05/29 23:04:37;;;;;;;;;;;;;;;11.67;73.94;102572.25;10416960;28;19929;-67
2023/05/29 23:09:39;;;;;;;;;;;;;;;11.60;74.01;102574.22;10415505;28;19932;-67
2023/05/29 23:14:42;;;;;;;;;;;;;;;11.65;74.02;102571.41;10413343;28;20430;-67
2023/05/29 23:19:44;;;;;;;;;;;;;;;11.56;75.01;102571.72;10398955;28;19925;-67
2023/05/29 23:24:46;;;;;;;;;;;;;;;10.85;77.81;102582.69;10415057;28;19929;-67
2023/05/29 23:29:49;;;;;;;;;;;;;;;11.53;77.10;102585.78;10415242;28;19925;-67
2023/05/29 23:34:51;;;;;;;;;;;;;;;11.31;76.89;102583.00;10414365;28;20294;-67
2023/05/29 23:39:54;;;;;;;;;;;;;;;10.93;79.38;102585.94;10414391;28;19925;-67
2023/05/29 23:44:56;;;;;;;;;;;;;;;11.31;79.07;102588.25;10415971;28;19929;-67
2023/05/29 23:49:59;;;;;;;;;;;;;;;11.15;79.55;102590.53;10415022;28;19925;-67
2023/05/29 23:55:01;;;;;;;;;;;;;;;10.85;81.83;102580.06;10396504;28;20011;-67
